createdAt,value
2023-04-22T00:00:57.512Z,9.71
2023-04-22T00:03:25.697Z,9.50
2023-04-22T00:05:54.683Z,9.37
2023-04-22T00:08:22.822Z,9.61
2023-04-22T00:10:52.191Z,9.31
2023-04-22T00:13:20.343Z,9.56
2023-04-22T00:15:48.524Z,9.53
2023-04-22T00:18:16.734Z,9.52
2023-04-22T00:20:45.048Z,9.46
2023-04-22T00:23:13.174Z,9.35
2023-04-22T00:25:41.824Z,9.14
2023-04-22T00:28:11.258Z,9.06
2023-04-22T00:30:39.388Z,8.94
2023-04-22T00:33:07.350Z,8.91
2023-04-22T00:35:35.394Z,8.84
2023-04-22T00:38:03.551Z,8.70
2023-04-22T00:40:31.485Z,8.54
2023-04-22T00:43:00.921Z,8.45
2023-04-22T00:45:32.098Z,8.28
2023-04-22T00:48:00.837Z,8.26
2023-04-22T00:50:28.886Z,8.07
2023-04-22T00:52:56.946Z,7.90
2023-04-22T00:55:25.094Z,7.79
2023-04-22T00:57:53.506Z,7.73
2023-04-22T01:00:26.909Z,7.69
2023-04-22T01:02:57.178Z,7.58
2023-04-22T01:05:25.746Z,7.38
2023-04-22T01:07:53.857Z,7.36
2023-04-22T01:10:21.870Z,7.43
2023-04-22T01:12:49.868Z,7.24
2023-04-22T01:15:18.162Z,7.43
2023-04-22T01:17:46.794Z,7.45
2023-04-22T01:20:16.967Z,7.48
2023-04-22T01:22:46.620Z,7.46
2023-04-22T01:25:16.037Z,7.61
2023-04-22T01:27:44.589Z,7.63
2023-04-22T01:30:13.761Z,7.79
2023-04-22T01:32:42.389Z,7.88
2023-04-22T01:35:11.346Z,7.85
2023-04-22T01:37:39.542Z,7.88
2023-04-22T01:40:10.433Z,7.91
2023-04-22T01:42:40.238Z,8.04
2023-04-22T01:45:09.253Z,8.12
2023-04-22T01:47:37.348Z,8.03
2023-04-22T01:50:05.902Z,8.03
2023-04-22T01:52:34.079Z,8.08
2023-04-22T01:55:03.111Z,8.21
2023-04-22T01:57:31.056Z,8.21
2023-04-22T02:00:00.490Z,8.26
2023-04-22T02:02:28.744Z,8.27
2023-04-22T02:04:56.892Z,8.36
2023-04-22T02:07:24.938Z,8.32
2023-04-22T02:09:52.850Z,8.54
2023-04-22T02:12:21.016Z,8.55
2023-04-22T02:14:49.010Z,8.47
2023-04-22T02:17:18.818Z,8.46
2023-04-22T02:19:46.844Z,8.43
2023-04-22T02:22:15.094Z,8.34
2023-04-22T02:24:43.175Z,8.45
2023-04-22T02:27:11.323Z,8.39
2023-04-22T02:29:39.490Z,8.41
2023-04-22T02:32:07.742Z,8.35
2023-04-22T02:34:37.532Z,8.28
2023-04-22T02:37:05.700Z,8.31
2023-04-22T02:39:33.716Z,8.31
2023-04-22T02:42:02.475Z,8.20
2023-04-22T02:44:30.493Z,8.09
2023-04-22T02:46:58.726Z,8.18
2023-04-22T02:49:26.851Z,8.14
2023-04-22T02:51:56.316Z,8.06
2023-04-22T02:54:24.295Z,8.12
2023-04-22T02:56:52.295Z,8.09
2023-04-22T02:59:20.234Z,8.05
2023-04-22T03:01:48.407Z,8.06
2023-04-22T03:04:16.679Z,7.53
2023-04-22T03:06:44.673Z,8.03
2023-04-22T03:09:14.049Z,8.07
2023-04-22T03:11:41.999Z,8.01
2023-04-22T03:14:10.004Z,8.10
2023-04-22T03:16:38.238Z,7.42
2023-04-22T03:19:06.502Z,8.07
2023-04-22T03:21:34.528Z,7.88
2023-04-22T03:24:02.500Z,7.80
2023-04-22T03:26:31.795Z,7.83
2023-04-22T03:28:59.744Z,7.80
2023-04-22T03:31:27.727Z,7.80
2023-04-22T03:33:55.708Z,7.69
2023-04-22T03:36:23.625Z,7.72
2023-04-22T03:38:51.699Z,7.60
2023-04-22T03:41:19.711Z,7.65
2023-04-22T03:43:49.110Z,7.71
2023-04-22T03:46:17.290Z,7.62
2023-04-22T03:48:45.374Z,7.28
2023-04-22T03:51:13.457Z,7.67
2023-04-22T03:53:41.417Z,7.64
2023-04-22T03:56:09.445Z,7.53
2023-04-22T03:58:37.428Z,7.60
2023-04-22T04:01:06.862Z,7.70
2023-04-22T04:03:35.081Z,7.69
2023-04-22T04:06:03.496Z,7.72
2023-04-22T04:08:31.591Z,7.75
2023-04-22T04:10:59.573Z,7.84
2023-04-22T04:13:32.368Z,7.88
2023-04-22T04:16:01.570Z,8.49
2023-04-22T04:18:30.993Z,9.44
2023-04-22T04:20:58.971Z,10.05
2023-04-22T04:23:27.269Z,10.62
2023-04-22T04:25:55.783Z,10.71
2023-04-22T04:28:24.472Z,9.75
2023-04-22T04:30:53.695Z,9.63
2023-04-22T04:33:21.809Z,10.55
2023-04-22T04:35:51.604Z,11.20
2023-04-22T04:38:19.726Z,11.73
2023-04-22T04:40:48.003Z,11.87
2023-04-22T04:43:15.973Z,12.10
2023-04-22T04:45:48.485Z,12.60
2023-04-22T04:48:17.591Z,13.03
2023-04-22T04:50:47.215Z,13.28
2023-04-22T04:53:16.567Z,13.58
2023-04-22T04:55:44.587Z,13.57
2023-04-22T04:58:12.711Z,13.56
2023-04-22T05:00:40.785Z,13.27
2023-04-22T05:03:08.904Z,13.31
2023-04-22T05:05:37.587Z,13.09
2023-04-22T05:08:05.704Z,12.80
2023-04-22T05:10:35.238Z,12.71
2023-04-22T05:13:04.427Z,13.33
2023-04-22T05:15:32.669Z,13.94
2023-04-22T05:18:00.797Z,14.58
2023-04-22T05:20:28.846Z,14.68
2023-04-22T05:22:56.764Z,14.63
2023-04-22T05:25:24.698Z,14.82
2023-04-22T05:27:54.182Z,14.83
2023-04-22T05:30:22.301Z,14.67
2023-04-22T05:32:50.361Z,14.47
2023-04-22T05:35:18.600Z,14.67
2023-04-22T05:37:46.517Z,15.08
2023-04-22T05:40:14.516Z,14.91
2023-04-22T05:42:42.511Z,15.13
2023-04-22T05:45:12.829Z,14.85
2023-04-22T05:47:40.970Z,14.91
2023-04-22T05:50:09.962Z,14.46
2023-04-22T05:52:39.042Z,14.62
2023-04-22T05:55:08.329Z,15.27
2023-04-22T05:57:36.421Z,15.53
2023-04-22T06:00:05.136Z,16.18
2023-04-22T06:02:34.816Z,15.83
2023-04-22T06:05:03.120Z,15.09
2023-04-22T06:07:31.525Z,15.48
2023-04-22T06:10:05.135Z,15.98
2023-04-22T06:12:34.795Z,16.69
2023-04-22T06:15:02.829Z,17.07
2023-04-22T06:17:30.923Z,17.24
2023-04-22T06:20:00.408Z,16.29
2023-04-22T06:22:28.453Z,16.40
2023-04-22T06:24:56.450Z,16.54
2023-04-22T06:27:25.754Z,16.61
2023-04-22T06:29:53.742Z,16.99
2023-04-22T06:32:21.874Z,17.77
2023-04-22T06:34:52.531Z,17.60
2023-04-22T06:37:21.816Z,17.87
2023-04-22T06:39:49.926Z,17.66
2023-04-22T06:42:18.247Z,17.32
2023-04-22T06:44:46.191Z,18.17
2023-04-22T06:47:14.242Z,18.73
2023-04-22T06:49:43.272Z,18.27
2023-04-22T06:52:11.933Z,18.15
2023-04-22T06:54:41.303Z,18.70
2023-04-22T06:57:09.440Z,18.59
2023-04-22T06:59:37.767Z,18.83
2023-04-22T07:02:06.909Z,19.66
2023-04-22T07:04:35.200Z,20.15
2023-04-22T07:07:03.714Z,19.14
2023-04-22T07:09:31.739Z,18.77
2023-04-22T07:12:01.360Z,18.91
2023-04-22T07:14:29.334Z,18.69
2023-04-22T07:16:57.428Z,19.54
2023-04-22T07:19:27.111Z,20.22
2023-04-22T07:21:55.383Z,20.68
2023-04-22T07:24:23.709Z,20.30
2023-04-22T07:26:51.846Z,20.61
2023-04-22T07:29:21.239Z,20.56
2023-04-22T07:31:49.247Z,19.19
2023-04-22T07:34:19.298Z,19.32
2023-04-22T07:36:47.467Z,19.45
2023-04-22T07:39:15.707Z,19.64
2023-04-22T07:41:43.605Z,19.96
2023-04-22T07:44:16.485Z,20.05
2023-04-22T07:46:45.953Z,19.73
2023-04-22T07:49:14.374Z,19.27
2023-04-22T07:51:42.638Z,19.75
2023-04-22T07:54:10.660Z,19.72
2023-04-22T07:56:38.668Z,19.29
2023-04-22T07:59:07.131Z,18.89
2023-04-22T08:01:35.068Z,19.92
2023-04-22T08:04:04.583Z,20.65
2023-04-22T08:06:33.081Z,21.08
2023-04-22T08:09:01.097Z,20.77
2023-04-22T08:11:29.116Z,20.93
2023-04-22T08:13:57.286Z,20.99
2023-04-22T08:16:25.459Z,20.70
2023-04-22T08:18:53.794Z,20.81
2023-04-22T08:21:23.221Z,20.03
2023-04-22T08:23:52.188Z,19.74
2023-04-22T08:26:20.430Z,19.50
2023-04-22T08:28:48.809Z,19.35
2023-04-22T08:31:16.840Z,19.63
2023-04-22T08:33:44.862Z,20.67
2023-04-22T08:36:12.988Z,21.48
2023-04-22T08:38:42.623Z,21.20
2023-04-22T08:41:12.049Z,21.12
2023-04-22T08:43:40.204Z,20.97
2023-04-22T08:46:08.338Z,20.93
2023-04-22T08:48:38.127Z,21.19
2023-04-22T08:51:07.944Z,21.73
2023-04-22T08:53:36.063Z,21.71
2023-04-22T08:56:07.074Z,22.12
2023-04-22T08:58:35.728Z,22.92
2023-04-22T09:01:04.762Z,23.21
2023-04-22T09:03:33.159Z,22.92
2023-04-22T09:06:04.563Z,22.89
2023-04-22T09:08:33.595Z,22.20
2023-04-22T09:11:01.640Z,22.46
2023-04-22T09:13:31.250Z,22.44
2023-04-22T09:16:00.103Z,22.74
2023-04-22T09:18:28.135Z,23.30
2023-04-22T09:20:57.577Z,23.11
2023-04-22T09:23:26.284Z,24.05
2023-04-22T09:25:54.286Z,24.56
2023-04-22T09:28:22.320Z,24.02
2023-04-22T09:30:51.732Z,24.12
2023-04-22T09:33:19.749Z,23.84
2023-04-22T09:36:10.024Z,21.92
2023-04-22T09:38:38.987Z,20.37
2023-04-22T09:41:11.365Z,19.96
2023-04-22T09:43:39.642Z,21.35
2023-04-22T09:46:11.479Z,22.48
2023-04-22T09:48:44.111Z,21.40
2023-04-22T09:51:19.237Z,20.65
2023-04-22T09:53:59.313Z,19.98
2023-04-22T09:56:54.332Z,19.49
2023-04-22T09:59:23.550Z,18.94
2023-04-22T10:01:54.201Z,19.02
2023-04-22T10:04:23.387Z,19.18
2023-04-22T10:06:52.736Z,20.15
2023-04-22T10:09:23.030Z,21.17
2023-04-22T10:11:52.853Z,21.85
2023-04-22T10:14:21.538Z,21.29
2023-04-22T10:16:50.883Z,20.29
2023-04-22T10:19:22.430Z,20.15
2023-04-22T10:21:55.061Z,20.21
2023-04-22T10:24:23.179Z,21.12
2023-04-22T10:26:53.058Z,20.88
2023-04-22T10:29:23.410Z,20.81
2023-04-22T10:31:57.340Z,20.79
2023-04-22T10:34:26.977Z,20.88
2023-04-22T10:36:56.726Z,21.85
2023-04-22T10:39:26.547Z,22.16
2023-04-22T10:41:58.227Z,22.96
2023-04-22T10:44:30.727Z,22.52
2023-04-22T10:47:00.577Z,22.91
2023-04-22T10:49:32.633Z,22.79
2023-04-22T10:52:01.653Z,23.63
2023-04-22T10:54:58.608Z,24.07
2023-04-22T10:57:37.534Z,23.60
2023-04-22T11:00:42.147Z,23.51
2023-04-22T11:03:17.074Z,23.62
2023-04-22T11:05:47.084Z,23.93
2023-04-22T11:08:24.329Z,24.14
2023-04-22T11:10:54.152Z,24.35
2023-04-22T11:13:23.206Z,23.78
2023-04-22T11:15:54.208Z,23.78
2023-04-22T11:18:23.477Z,23.76
2023-04-22T11:20:53.800Z,22.54
2023-04-22T11:23:25.063Z,22.49
2023-04-22T11:25:57.757Z,22.45
2023-04-22T11:28:25.972Z,22.06
2023-04-22T11:30:54.583Z,21.65
2023-04-22T11:33:22.771Z,21.41
2023-04-22T11:35:52.757Z,20.75
2023-04-22T11:38:20.919Z,21.62
2023-04-22T11:40:49.158Z,21.76
2023-04-22T11:43:18.709Z,22.02
2023-04-22T11:45:46.934Z,22.80
2023-04-22T11:48:16.789Z,22.73
2023-04-22T11:50:45.254Z,22.49
2023-04-22T11:53:19.367Z,21.84
2023-04-22T11:55:51.039Z,22.03
2023-04-22T11:58:25.003Z,22.52
2023-04-22T12:00:54.725Z,22.00
2023-04-22T12:03:24.758Z,21.95
2023-04-22T12:05:54.957Z,21.95
2023-04-22T12:08:26.189Z,21.72
2023-04-22T12:10:56.006Z,21.65
2023-04-22T12:13:25.299Z,21.23
2023-04-22T12:15:56.565Z,20.71
2023-04-22T12:18:49.383Z,20.64
2023-04-22T12:21:20.632Z,20.70
2023-04-22T12:23:53.455Z,20.77
2023-04-22T12:26:26.391Z,20.79
2023-04-22T12:28:56.303Z,21.02
2023-04-22T12:31:24.689Z,20.60
2023-04-22T12:33:52.976Z,19.87
2023-04-22T12:36:22.071Z,20.15
2023-04-22T12:38:51.779Z,19.25
2023-04-22T12:41:20.053Z,20.01
2023-04-22T12:43:48.411Z,20.12
2023-04-22T12:46:16.497Z,19.71
2023-04-22T12:48:44.496Z,19.76
2023-04-22T12:51:12.447Z,20.30
2023-04-22T12:53:40.538Z,19.75
2023-04-22T12:56:10.057Z,19.63
2023-04-22T12:58:37.998Z,19.58
2023-04-22T13:01:06.264Z,19.25
2023-04-22T13:03:34.431Z,19.25
2023-04-22T13:06:02.518Z,19.67
2023-04-22T13:08:30.910Z,19.43
2023-04-22T13:11:00.278Z,19.27
2023-04-22T13:13:29.781Z,19.05
2023-04-22T13:15:57.863Z,18.60
2023-04-22T13:18:25.845Z,18.25
2023-04-22T13:20:55.155Z,18.28
2023-04-22T13:23:23.436Z,18.21
2023-04-22T13:25:51.841Z,18.04
2023-04-22T13:28:20.073Z,17.84
2023-04-22T13:30:49.751Z,17.89
2023-04-22T13:33:17.797Z,17.80
2023-04-22T13:35:46.710Z,18.06
2023-04-22T13:38:14.725Z,17.94
2023-04-22T13:40:42.825Z,17.80
2023-04-22T13:43:11.087Z,17.85
2023-04-22T13:45:40.114Z,17.65
2023-04-22T13:48:09.575Z,17.73
2023-04-22T13:50:37.507Z,17.85
2023-04-22T13:53:09.967Z,17.79
2023-04-22T13:55:38.097Z,17.50
2023-04-22T13:58:07.685Z,17.71
2023-04-22T14:00:36.087Z,17.88
2023-04-22T14:03:04.379Z,16.89
2023-04-22T14:05:33.967Z,17.75
2023-04-22T14:08:02.142Z,17.68
2023-04-22T14:10:30.093Z,17.77
2023-04-22T14:12:58.129Z,17.95
2023-04-22T14:15:26.091Z,17.95
2023-04-22T14:17:54.934Z,17.76
2023-04-22T14:20:25.134Z,17.95
2023-04-22T14:22:54.787Z,17.91
2023-04-22T14:25:22.835Z,17.75
2023-04-22T14:27:50.993Z,17.79
2023-04-22T14:30:20.429Z,17.98
2023-04-22T14:32:48.453Z,17.98
2023-04-22T14:35:16.458Z,18.00
2023-04-22T14:37:45.233Z,18.07
2023-04-22T14:40:14.928Z,18.16
2023-04-22T14:42:42.908Z,17.74
2023-04-22T14:45:11.895Z,18.21
2023-04-22T14:47:40.010Z,17.95
2023-04-22T14:50:08.818Z,18.05
2023-04-22T14:52:36.842Z,17.87
2023-04-22T14:55:15.584Z,17.56
2023-04-22T14:57:54.340Z,17.58
2023-04-22T15:00:22.541Z,17.57
2023-04-22T15:02:51.212Z,17.53
2023-04-22T15:05:19.429Z,17.76
2023-04-22T15:07:47.351Z,17.80
2023-04-22T15:10:16.886Z,17.84
2023-04-22T15:12:45.725Z,17.82
2023-04-22T15:15:16.226Z,17.80
2023-04-22T15:17:44.793Z,17.63
2023-04-22T15:20:14.145Z,17.67
2023-04-22T15:22:43.043Z,17.37
2023-04-22T15:25:11.933Z,17.38
2023-04-22T15:27:40.237Z,17.09
2023-04-22T15:30:11.067Z,17.30
2023-04-22T15:32:43.694Z,17.29
2023-04-22T15:35:12.831Z,17.21
2023-04-22T15:37:42.167Z,17.00
2023-04-22T15:40:10.708Z,16.93
2023-04-22T15:42:38.694Z,16.78
2023-04-22T15:45:08.067Z,17.12
2023-04-22T15:47:36.933Z,17.07
2023-04-22T15:50:09.489Z,16.93
2023-04-22T15:52:38.909Z,17.03
2023-04-22T15:55:07.789Z,16.98
2023-04-22T15:57:36.226Z,17.15
2023-04-22T16:00:11.834Z,17.16
2023-04-22T16:02:41.481Z,16.87
2023-04-22T16:05:11.896Z,17.14
2023-04-22T16:07:40.425Z,16.95
2023-04-22T16:10:10.243Z,16.81
2023-04-22T16:12:38.186Z,16.88
2023-04-22T16:15:07.962Z,16.78
2023-04-22T16:17:36.206Z,16.43
2023-04-22T16:20:06.193Z,16.52
2023-04-22T16:22:35.598Z,16.56
2023-04-22T16:25:04.295Z,16.43
2023-04-22T16:27:32.544Z,16.25
2023-04-22T16:30:00.551Z,15.93
2023-04-22T16:32:28.632Z,16.08
2023-04-22T16:34:56.984Z,16.01
2023-04-22T16:37:25.028Z,15.72
2023-04-22T16:39:54.556Z,15.73
2023-04-22T16:42:22.510Z,15.42
2023-04-22T16:44:51.599Z,15.33
2023-04-22T16:47:19.717Z,15.12
2023-04-22T16:49:47.912Z,15.01
2023-04-22T16:52:16.202Z,14.93
2023-04-22T16:54:44.158Z,14.87
2023-04-22T16:57:13.646Z,14.80
2023-04-22T16:59:41.924Z,14.65
2023-04-22T17:02:10.483Z,14.48
2023-04-22T17:04:38.975Z,14.57
2023-04-22T17:07:09.409Z,14.43
2023-04-22T17:09:37.362Z,14.30
2023-04-22T17:12:06.255Z,14.20
2023-04-22T17:14:35.620Z,14.13
2023-04-22T17:17:03.596Z,14.03
2023-04-22T17:19:31.596Z,14.00
2023-04-22T17:22:01.697Z,13.83
2023-04-22T17:24:30.652Z,13.84
2023-04-22T17:26:58.714Z,13.74
2023-04-22T17:29:26.960Z,13.42
2023-04-22T17:31:56.605Z,13.59
2023-04-22T17:34:24.624Z,12.41
2023-04-22T17:36:54.143Z,13.47
2023-04-22T17:39:23.361Z,13.41
2023-04-22T17:41:51.339Z,13.35
2023-04-22T17:44:19.274Z,13.26
2023-04-22T17:46:47.317Z,13.20
2023-04-22T17:49:16.806Z,13.08
2023-04-22T17:51:44.910Z,13.20
2023-04-22T17:54:12.943Z,13.12
2023-04-22T17:56:40.999Z,12.96
2023-04-22T17:59:11.311Z,12.96
2023-04-22T18:01:39.940Z,11.78
2023-04-22T18:04:08.222Z,12.71
2023-04-22T18:06:40.693Z,12.61
2023-04-22T18:09:08.696Z,12.64
2023-04-22T18:11:37.305Z,12.57
2023-04-22T18:14:05.784Z,12.24
2023-04-22T18:16:33.704Z,12.47
2023-04-22T18:19:04.118Z,12.38
2023-04-22T18:21:32.717Z,12.34
2023-04-22T18:24:03.803Z,12.29
2023-04-22T18:26:32.400Z,12.19
2023-04-22T18:29:00.523Z,12.21
2023-04-22T18:31:29.162Z,12.12
2023-04-22T18:36:41.716Z,12.08
2023-04-22T18:39:11.478Z,12.10
2023-04-22T18:41:40.199Z,11.84
2023-04-22T18:44:08.184Z,11.79
2023-04-22T18:46:36.346Z,11.88
2023-04-22T18:49:04.645Z,11.89
2023-04-22T18:51:33.260Z,11.85
2023-04-22T18:54:01.550Z,11.69
2023-04-22T18:56:32.956Z,11.74
2023-04-22T18:59:01.016Z,11.82
2023-04-22T19:01:29.585Z,11.73
2023-04-22T19:04:01.656Z,11.56
2023-04-22T19:06:29.978Z,11.84
2023-04-22T19:08:58.105Z,11.77
2023-04-22T19:11:26.317Z,11.76
2023-04-22T19:13:55.747Z,11.75
2023-04-22T19:16:26.189Z,11.60
2023-04-22T19:18:54.724Z,11.76
2023-04-22T19:21:22.811Z,11.74
2023-04-22T19:23:53.072Z,11.71
2023-04-22T19:26:22.224Z,11.71
2023-04-22T19:28:50.367Z,11.60
2023-04-22T19:31:19.862Z,11.51
2023-04-22T19:33:48.579Z,11.67
2023-04-22T19:36:16.749Z,11.60
2023-04-22T19:38:45.020Z,11.59
2023-04-22T19:41:13.668Z,11.56
2023-04-22T19:43:42.113Z,11.17
2023-04-22T19:46:10.110Z,11.47
2023-04-22T19:48:40.304Z,11.30
2023-04-22T19:51:11.092Z,11.37
2023-04-22T19:53:42.085Z,11.03
2023-04-22T19:56:10.366Z,11.20
2023-04-22T19:58:39.693Z,11.21
2023-04-22T20:01:09.083Z,11.15
2023-04-22T20:03:39.412Z,11.08
2023-04-22T20:06:08.340Z,10.90
2023-04-22T20:08:41.866Z,10.92
2023-04-22T20:11:11.600Z,10.81
2023-04-22T20:13:40.576Z,10.82
2023-04-22T20:16:09.673Z,10.64
2023-04-22T20:18:39.477Z,10.72
2023-04-22T20:21:08.325Z,10.70
2023-04-22T20:23:36.905Z,10.69
2023-04-22T20:26:05.072Z,10.55
2023-04-22T20:28:44.971Z,10.61
2023-04-22T20:31:13.635Z,10.57
2023-04-22T20:33:43.170Z,10.50
2023-04-22T20:36:11.786Z,10.04
2023-04-22T20:38:40.512Z,10.35
2023-04-22T20:41:10.128Z,10.32
2023-04-22T20:43:38.070Z,10.31
2023-04-22T20:46:06.737Z,10.11
2023-04-22T20:48:34.794Z,10.09
2023-04-22T20:51:04.202Z,9.97
2023-04-22T20:53:32.189Z,9.90
2023-04-22T20:56:00.158Z,9.78
2023-04-22T20:58:28.286Z,9.78
2023-04-22T21:00:56.857Z,9.72
2023-04-22T21:03:28.651Z,9.78
2023-04-22T21:05:59.246Z,9.77
2023-04-22T21:08:29.340Z,9.33
2023-04-22T21:10:57.925Z,9.28
2023-04-22T21:13:26.488Z,9.61
2023-04-22T21:15:58.976Z,9.64
2023-04-22T21:18:27.750Z,9.57
2023-04-22T21:20:57.447Z,9.65
2023-04-22T21:23:25.806Z,9.56
2023-04-22T21:25:56.296Z,9.67
2023-04-22T21:28:24.851Z,9.58
2023-04-22T21:30:53.502Z,9.47
2023-04-22T21:33:21.602Z,9.50
2023-04-22T21:35:49.752Z,9.53
2023-04-22T21:38:17.773Z,9.30
2023-04-22T21:40:45.779Z,9.14
2023-04-22T21:43:15.255Z,9.27
2023-04-22T21:45:43.206Z,9.31
2023-04-22T21:48:11.390Z,9.39
2023-04-22T21:50:39.387Z,9.34
2023-04-22T21:53:08.021Z,9.43
2023-04-22T21:55:36.159Z,9.44
2023-04-22T21:58:04.380Z,9.30
2023-04-22T22:00:33.812Z,9.44
2023-04-22T22:03:03.395Z,9.31
2023-04-22T22:05:31.911Z,9.32
2023-04-22T22:07:59.919Z,9.41
2023-04-22T22:10:28.141Z,9.42
2023-04-22T22:12:56.360Z,9.36
2023-04-22T22:15:24.657Z,9.27
2023-04-22T22:17:54.024Z,9.43
2023-04-22T22:20:22.245Z,9.44
2023-04-22T22:22:50.242Z,9.39
2023-04-22T22:25:18.381Z,9.38
2023-04-22T22:27:47.327Z,9.44
2023-04-22T22:30:16.189Z,9.32
2023-04-22T22:32:45.876Z,9.33
2023-04-22T22:35:16.501Z,9.28
2023-04-22T22:37:45.261Z,9.30
2023-04-22T22:40:14.076Z,9.28
2023-04-22T22:42:42.095Z,9.27
2023-04-22T22:45:10.952Z,9.24
2023-04-22T22:47:40.835Z,9.27
2023-04-22T22:50:09.888Z,9.18
2023-04-22T22:52:39.294Z,9.23
2023-04-22T22:55:08.253Z,9.18
2023-04-22T22:57:36.238Z,9.24
2023-04-22T23:00:05.979Z,9.20
2023-04-22T23:02:34.071Z,8.76
2023-04-22T23:05:02.373Z,9.24
2023-04-22T23:07:30.396Z,8.89
2023-04-22T23:09:59.828Z,9.29
2023-04-22T23:12:27.845Z,9.28
2023-04-22T23:14:56.013Z,9.04
2023-04-22T23:17:24.084Z,9.13
2023-04-22T23:19:53.374Z,9.01
2023-04-22T23:22:21.432Z,8.85
2023-04-22T23:24:49.851Z,8.98
2023-04-22T23:27:20.380Z,8.90
2023-04-22T23:29:48.905Z,9.00
2023-04-22T23:32:20.773Z,9.05
2023-04-22T23:34:50.934Z,9.10
2023-04-22T23:37:20.675Z,8.74
2023-04-22T23:39:48.703Z,9.05
2023-04-22T23:42:16.687Z,9.11
2023-04-22T23:44:46.395Z,9.06
2023-04-22T23:47:14.680Z,8.99
2023-04-22T23:49:42.825Z,9.00
2023-04-22T23:52:13.168Z,8.99
2023-04-22T23:54:41.941Z,8.96
2023-04-22T23:57:10.777Z,8.81
2023-04-22T23:59:39.439Z,8.32
